Time;durP1;ratioP1;P1;durP2;ratioP2;P2;SDS_P1;SDS_P2;PMS_P1;PMS_P2;Temp;Humidity;BMP_temperature;BMP_pressure;BME280_temperature;BME280_humidity;BME280_pressure;Samples;Min_cycle;Max_cycle;Signal;HPM_P1;HPM_P2
2021/04/25 00:01:22;;;;;;;9.40;4.62;;;;;;;0.08;74.46;99793.05;1799119;79;20999;-61
2021/04/25 00:03:51;;;;;;;10.93;4.58;;;;;;;0.12;74.25;99796.09;1799309;79;21185;-62
2021/04/25 00:06:19;;;;;;;10.65;4.65;;;;;;;0.14;74.02;99796.14;1799230;79;21157;-60
2021/04/25 00:08:47;;;;;;;10.85;4.80;;;;;;;0.15;73.87;99791.55;1799172;79;21130;-60
2021/04/25 00:11:14;;;;;;;13.93;4.75;;;;;;;0.13;73.70;99792.33;1799113;78;21455;-60
2021/04/25 00:13:47;;;;;;;9.73;4.45;;;;;;;0.12;73.63;99790.69;1799132;79;21141;-60
2021/04/25 00:16:15;;;;;;;11.63;4.62;;;;;;;0.12;73.66;99789.34;1799231;79;21129;-60
2021/04/25 00:18:44;;;;;;;9.00;4.47;;;;;;;0.10;73.65;99782.83;1799236;79;21526;-60
2021/04/25 00:21:13;;;;;;;10.38;5.85;;;;;;;0.11;73.61;99782.30;1799066;79;21129;-60
2021/04/25 00:23:41;;;;;;;15.20;6.17;;;;;;;0.10;73.71;99781.48;1794122;78;21199;-60
2021/04/25 00:26:08;;;;;;;12.60;6.40;;;;;;;0.08;73.63;99778.20;1782281;79;21185;-60
2021/04/25 00:28:37;;;;;;;16.17;5.80;;;;;;;0.07;73.69;99775.74;1773704;79;21133;-61
2021/04/25 00:31:04;;;;;;;12.78;5.55;;;;;;;0.06;73.64;99772.76;1752500;81;21117;-60
2021/04/25 00:33:33;;;;;;;11.48;5.50;;;;;;;0.06;73.65;99773.58;1767499;81;21647;-60
2021/04/25 00:36:01;;;;;;;11.15;5.35;;;;;;;0.06;73.64;99766.01;1767452;81;22338;-60
2021/04/25 00:38:28;;;;;;;13.18;4.65;;;;;;;0.09;73.56;99772.27;1767373;81;21156;-60
2021/04/25 00:40:56;;;;;;;11.53;5.08;;;;;;;0.11;73.42;99763.41;1767532;81;21174;-60
2021/04/25 00:43:24;;;;;;;12.10;5.62;;;;;;;0.12;73.30;99754.24;1767180;80;21125;-60
2021/04/25 00:45:52;;;;;;;12.15;5.40;;;;;;;0.14;73.25;99757.52;1767589;80;21137;-60
2021/04/25 00:48:21;;;;;;;9.83;5.08;;;;;;;0.16;73.19;99755.40;1767833;80;21207;-61
2021/04/25 00:50:48;;;;;;;8.85;5.22;;;;;;;0.17;73.03;99751.11;1783820;78;21196;-60
2021/04/25 00:53:18;;;;;;;13.05;5.83;;;;;;;0.16;73.00;99746.77;1799105;79;21153;-61
2021/04/25 00:55:46;;;;;;;11.35;4.67;;;;;;;0.18;72.91;99751.92;1799337;79;21134;-61
2021/04/25 00:58:14;;;;;;;11.22;4.80;;;;;;;0.19;72.82;99751.69;1799600;78;21051;-61
2021/04/25 01:00:41;;;;;;;12.65;4.67;;;;;;;0.19;72.80;99745.46;1799484;78;21341;-60
2021/04/25 01:03:09;;;;;;;9.25;4.72;;;;;;;0.19;72.77;99746.81;1799390;79;21015;-60
2021/04/25 01:05:37;;;;;;;12.68;4.53;;;;;;;0.20;72.69;99733.60;1799345;79;21038;-61
2021/04/25 01:08:05;;;;;;;11.78;4.60;;;;;;;0.22;72.69;99734.18;1799470;79;21605;-60
2021/04/25 01:10:33;;;;;;;9.63;4.00;;;;;;;0.24;72.61;99732.88;1799579;78;21153;-61
2021/04/25 01:13:01;;;;;;;8.43;3.75;;;;;;;0.27;72.53;99720.23;1799275;78;21564;-61
2021/04/25 01:15:30;;;;;;;13.25;4.35;;;;;;;0.31;72.54;99717.87;1784086;79;21050;-61
2021/04/25 01:17:58;;;;;;;8.55;4.45;;;;;;;0.34;72.46;99722.78;1799433;79;21054;-61
2021/04/25 01:20:26;;;;;;;9.70;5.10;;;;;;;0.37;72.34;99725.52;1799352;79;21603;-61
2021/04/25 01:22:53;;;;;;;11.75;4.72;;;;;;;0.40;72.26;99718.28;1799715;79;21570;-61
2021/04/25 01:25:22;;;;;;;8.68;4.90;;;;;;;0.44;72.19;99722.95;1799336;79;21196;-61
2021/04/25 01:27:50;;;;;;;10.05;4.65;;;;;;;0.47;72.07;99723.81;1799446;78;21573;-61
2021/04/25 01:30:23;;;;;;;9.80;4.62;;;;;;;0.50;71.97;99712.52;1799539;79;21102;-60
2021/04/25 01:32:50;;;;;;;;;;;;;;;0.54;71.91;99712.84;1802027;79;21122;-61
2021/04/25 01:35:22;;;;;;;9.38;4.37;;;;;;;0.57;71.80;99704.25;1799478;79;20541;-61
2021/04/25 01:37:51;;;;;;;;;;;;;;;0.59;71.69;99704.79;1812968;79;23508;-61
2021/04/25 01:40:19;;;;;;;10.43;4.47;;;;;;;0.63;71.59;99701.88;1799398;79;20152;-61
2021/04/25 01:42:48;;;;;;;14.13;4.08;;;;;;;0.66;71.48;99695.45;1799455;78;21192;-61
2021/04/25 01:45:16;;;;;;;8.55;4.20;;;;;;;0.71;71.35;99693.89;1799311;79;21180;-61
2021/04/25 01:47:52;;;;;;;11.08;4.97;;;;;;;0.73;71.25;99693.11;1799538;79;21062;-62
2021/04/25 01:50:21;;;;;;;11.65;4.12;;;;;;;0.79;71.21;99692.12;1799399;79;21184;-61
2021/04/25 01:52:49;;;;;;;9.58;4.22;;;;;;;0.82;70.99;99680.81;1799476;78;21631;-62
2021/04/25 01:55:17;;;;;;;6.33;3.92;;;;;;;0.85;70.97;99687.89;1799369;78;21153;-62
2021/04/25 01:57:45;;;;;;;11.50;5.33;;;;;;;0.88;70.80;99687.93;1799437;79;21109;-62
2021/04/25 02:00:17;;;;;;;9.70;4.62;;;;;;;0.91;70.77;99683.38;1799462;79;21565;-62
2021/04/25 02:02:48;;;;;;;8.48;4.25;;;;;;;0.92;70.55;99689.07;1799795;78;21321;-62
2021/04/25 02:05:17;;;;;;;9.25;4.10;;;;;;;0.91;70.43;99688.25;1799122;79;21196;-62
2021/04/25 02:07:44;;;;;;;8.55;4.58;;;;;;;0.90;70.35;99679.04;1799435;79;21534;-62
2021/04/25 02:10:13;;;;;;;8.65;3.87;;;;;;;0.90;70.31;99682.56;1799555;79;20979;-61
2021/04/25 02:12:41;;;;;;;7.42;4.12;;;;;;;0.92;70.26;99682.31;1799234;79;21097;-62
2021/04/25 02:15:11;;;;;;;8.90;4.08;;;;;;;0.92;70.25;99687.72;1799413;79;21197;-62
2021/04/25 02:17:40;;;;;;;10.15;4.28;;;;;;;0.94;70.21;99684.23;1799477;79;21014;-62
2021/04/25 02:20:12;;;;;;;7.95;4.25;;;;;;;0.91;70.30;99674.73;1799290;79;21066;-62
2021/04/25 02:22:39;;;;;;;11.40;4.92;;;;;;;0.90;70.43;99674.98;1799648;79;21145;-61
2021/04/25 02:25:10;;;;;;;10.05;4.53;;;;;;;0.86;70.52;99667.91;1799482;79;21482;-61
2021/04/25 02:27:37;;;;;;;9.88;4.55;;;;;;;0.82;70.63;99671.36;1799314;79;21261;-61
2021/04/25 02:30:09;;;;;;;10.68;4.90;;;;;;;0.79;70.68;99674.55;1799513;79;21968;-60
2021/04/25 02:32:37;;;;;;;;;;;;;;;0.75;70.62;99668.83;1802162;78;21451;-61
2021/04/25 02:35:07;;;;;;;10.55;4.25;;;;;;;0.72;70.65;99674.73;1799231;79;20212;-61
2021/04/25 02:37:35;;;;;;;15.13;4.17;;;;;;;0.68;70.71;99672.23;1798025;79;21130;-61
2021/04/25 02:40:07;;;;;;;8.63;4.40;;;;;;;0.64;70.90;99666.51;1776098;79;21368;-61
2021/04/25 02:42:37;;;;;;;9.48;3.33;;;;;;;0.62;70.98;99659.19;1795527;79;21113;-60
2021/04/25 02:45:06;;;;;;;9.03;4.22;;;;;;;0.60;71.10;99661.31;1759511;81;21072;-61
2021/04/25 02:47:34;;;;;;;13.60;4.67;;;;;;;0.61;71.20;99658.08;1760373;79;21159;-61
2021/04/25 02:50:02;;;;;;;8.60;4.25;;;;;;;0.61;71.26;99655.38;1799359;79;21116;-61
2021/04/25 02:52:29;;;;;;;9.28;4.83;;;;;;;0.60;71.31;99662.67;1799375;79;21200;-61
2021/04/25 02:54:56;;;;;;;10.43;4.85;;;;;;;0.59;71.39;99659.68;1802542;79;21165;-61
2021/04/25 02:57:24;;;;;;;10.58;5.35;;;;;;;0.58;71.46;99657.22;1807103;79;21558;-61
2021/04/25 02:59:52;;;;;;;9.30;5.15;;;;;;;0.57;71.62;99658.32;1764803;79;21029;-61
2021/04/25 03:02:19;;;;;;;10.82;4.78;;;;;;;0.57;71.79;99655.63;1758418;81;21160;-61
2021/04/25 03:04:47;;;;;;;7.58;4.47;;;;;;;0.59;71.89;99657.52;1758264;81;21202;-60
2021/04/25 03:07:14;;;;;;;9.85;4.45;;;;;;;0.60;71.84;99655.91;1758236;81;21663;-61
2021/04/25 03:09:44;;;;;;;10.05;4.58;;;;;;;0.65;71.84;99653.28;1770647;78;21128;-61
2021/04/25 03:12:11;;;;;;;10.08;4.00;;;;;;;0.71;71.62;99650.66;1801478;79;21126;-60
2021/04/25 03:14:40;;;;;;;10.35;5.10;;;;;;;0.73;71.49;99660.69;1807297;79;21585;-61
2021/04/25 03:17:08;;;;;;;9.23;4.60;;;;;;;0.77;71.32;99659.13;1807130;79;21190;-61
2021/04/25 03:19:36;;;;;;;19.37;4.92;;;;;;;0.78;71.15;99660.22;1807179;78;21063;-60
2021/04/25 03:22:04;;;;;;;8.63;4.55;;;;;;;0.80;71.10;99660.80;1807452;79;21058;-67
2021/04/25 03:24:31;;;;;;;9.93;4.55;;;;;;;0.84;71.22;99665.17;1807146;78;21133;-62
2021/04/25 03:27:00;;;;;;;13.40;4.80;;;;;;;0.85;70.91;99662.75;1807412;79;21138;-62
2021/04/25 03:29:28;;;;;;;7.92;4.08;;;;;;;0.88;70.80;99669.01;1807331;79;21371;-63
2021/04/25 03:31:56;;;;;;;11.53;4.45;;;;;;;0.92;70.63;99666.91;1807260;79;20971;-62
2021/04/25 03:34:23;;;;;;;7.87;4.05;;;;;;;0.97;70.47;99666.98;1807361;79;21531;-62
2021/04/25 03:36:51;;;;;;;8.18;4.47;;;;;;;1.04;70.23;99670.03;1807233;79;21565;-62
2021/04/25 03:39:18;;;;;;;12.35;4.75;;;;;;;1.12;69.54;99678.53;1806950;78;21026;-62
2021/04/25 03:41:46;;;;;;;9.45;4.78;;;;;;;1.24;69.23;99677.03;1799653;78;21193;-61
2021/04/25 03:44:14;;;;;;;10.70;4.72;;;;;;;1.35;68.99;99677.97;1783380;79;21790;-62
2021/04/25 03:46:42;;;;;;;9.50;5.03;;;;;;;1.45;68.48;99666.74;1807225;78;20936;-62
2021/04/25 03:49:10;;;;;;;12.70;5.17;;;;;;;1.54;68.14;99674.70;1807174;78;21009;-62
2021/04/25 03:51:38;;;;;;;10.98;4.90;;;;;;;1.64;67.88;99665.87;1807182;79;21055;-62
2021/04/25 03:54:06;;;;;;;14.10;5.28;;;;;;;1.73;67.64;99671.12;1807210;79;21464;-63
2021/04/25 03:56:33;;;;;;;13.25;5.22;;;;;;;1.82;67.46;99668.20;1812523;79;21125;-63
2021/04/25 03:59:01;;;;;;;11.57;5.20;;;;;;;1.89;67.28;99667.47;1812810;79;21118;-63
2021/04/25 04:01:29;;;;;;;8.95;4.67;;;;;;;1.97;67.11;99670.25;1813036;79;20924;-62
2021/04/25 04:03:56;;;;;;;12.73;5.33;;;;;;;2.05;67.12;99671.67;1813206;78;20924;-64
2021/04/25 04:06:24;;;;;;;11.20;5.35;;;;;;;2.12;67.13;99666.86;1813067;79;21202;-61
2021/04/25 04:08:51;;;;;;;10.15;5.20;;;;;;;2.19;66.81;99668.83;1812959;79;21529;-60
2021/04/25 04:11:20;;;;;;;12.10;6.42;;;;;;;2.24;66.56;99666.98;1812755;78;21193;-62
2021/04/25 04:13:47;;;;;;;15.10;5.70;;;;;;;2.33;66.20;99665.94;1812266;79;21565;-62
2021/04/25 04:16:17;;;;;;;11.93;5.35;;;;;;;2.41;66.14;99673.59;1812547;79;21177;-62
2021/04/25 04:18:45;;;;;;;11.45;6.03;;;;;;;2.49;65.65;99677.17;1812270;79;21375;-62
2021/04/25 04:21:12;;;;;;;13.35;5.87;;;;;;;2.59;65.01;99668.30;1812243;79;21224;-61
2021/04/25 04:23:40;;;;;;;13.43;5.67;;;;;;;2.67;65.20;99658.87;1812464;78;21169;-62
2021/04/25 04:26:08;;;;;;;11.55;6.33;;;;;;;2.76;65.00;99656.77;1812557;78;21078;-61
2021/04/25 04:28:36;;;;;;;12.33;5.58;;;;;;;2.85;64.67;99656.55;1813116;79;21050;-62
2021/04/25 04:31:04;;;;;;;11.78;6.03;;;;;;;2.96;64.03;99665.53;1812996;79;21150;-64
2021/04/25 04:33:32;;;;;;;13.58;5.95;;;;;;;3.04;64.22;99652.83;1783003;77;21171;-64
2021/04/25 04:36:02;;;;;;;13.65;5.83;;;;;;;3.14;63.64;99657.48;1813004;79;20991;-67
2021/04/25 04:38:30;;;;;;;10.25;5.70;;;;;;;3.23;63.44;99658.62;1812615;79;21161;-68
2021/04/25 04:40:58;;;;;;;14.75;6.58;;;;;;;3.33;62.96;99654.59;1813024;79;21118;-66
2021/04/25 04:43:26;;;;;;;13.53;6.00;;;;;;;3.42;62.67;99658.97;1813250;79;21367;-64
2021/04/25 04:45:54;;;;;;;15.40;5.97;;;;;;;3.51;62.06;99660.06;1812980;78;20991;-62
2021/04/25 04:48:21;;;;;;;11.83;5.75;;;;;;;3.59;62.03;99659.55;1812930;79;21078;-64
2021/04/25 04:50:50;;;;;;;13.55;6.10;;;;;;;3.67;61.76;99652.78;1813183;79;21154;-61
2021/04/25 04:53:17;;;;;;;12.45;6.40;;;;;;;3.76;61.56;99658.78;1813027;78;21141;-61
2021/04/25 04:55:45;;;;;;;11.80;6.00;;;;;;;3.84;61.65;99657.44;1813065;79;21317;-62
2021/04/25 04:58:12;;;;;;;14.65;5.95;;;;;;;3.93;61.29;99658.00;1813105;79;21110;-63
2021/04/25 05:00:40;;;;;;;13.85;6.62;;;;;;;4.02;61.35;99661.00;1812834;78;21178;-62
2021/04/25 05:03:09;;;;;;;12.05;6.30;;;;;;;4.10;61.33;99666.41;1813071;79;21640;-62
2021/04/25 05:05:37;;;;;;;10.63;5.55;;;;;;;4.17;61.68;99665.61;1812094;79;21130;-64
2021/04/25 05:08:05;;;;;;;13.22;6.37;;;;;;;4.24;60.91;99664.25;1812532;79;21355;-66
2021/04/25 05:10:33;;;;;;;14.75;6.47;;;;;;;4.28;61.01;99666.70;1801758;79;20984;-72
2021/04/25 05:13:01;;;;;;;12.43;5.53;;;;;;;4.34;61.27;99666.70;1793973;79;21724;-66
2021/04/25 05:15:30;;;;;;;14.18;6.95;;;;;;;4.40;61.50;99666.97;1813019;78;21165;-65
2021/04/25 05:17:57;;;;;;;17.57;6.95;;;;;;;4.47;61.25;99671.05;1813142;79;20928;-64
2021/04/25 05:20:25;;;;;;;11.08;5.92;;;;;;;4.54;61.07;99663.98;1813217;79;21502;-65
2021/04/25 05:22:53;;;;;;;14.43;6.03;;;;;;;4.71;61.51;99667.74;1812804;79;21006;-70
2021/04/25 05:25:20;;;;;;;12.70;6.15;;;;;;;4.71;61.51;99667.74;1812892;79;21011;-65
2021/04/25 05:27:48;;;;;;;13.80;7.25;;;;;;;4.82;61.66;99665.28;1813297;79;21118;-65
2021/04/25 05:30:16;;;;;;;16.48;6.28;;;;;;;4.95;61.58;99661.45;1813098;79;21046;-70
2021/04/25 05:32:43;;;;;;;16.90;6.03;;;;;;;5.05;60.44;99661.97;1813232;79;21196;-66
2021/04/25 05:35:13;;;;;;;13.03;6.12;;;;;;;5.11;60.67;99663.58;1812286;77;21129;-64
2021/04/25 05:37:41;;;;;;;14.80;5.78;;;;;;;5.19;60.20;99654.03;1767503;79;21413;-65
2021/04/25 05:40:12;;;;;;;17.95;6.87;;;;;;;5.27;60.64;99661.05;1809818;79;21094;-71
2021/04/25 05:42:40;;;;;;;11.75;5.83;;;;;;;5.41;60.81;99655.02;1811839;79;21173;-64
2021/04/25 05:45:22;;;;;;;9.40;5.65;;;;;;;5.53;60.02;99660.41;1812553;79;22249;-64
2021/04/25 05:47:55;;;;;;;13.35;5.72;;;;;;;5.59;60.10;99657.11;1812410;79;21066;-64
2021/04/25 05:50:26;;;;;;;17.75;5.78;;;;;;;5.83;59.41;99653.95;1807137;77;21189;-63
2021/04/25 05:52:53;;;;;;;15.30;5.60;;;;;;;5.83;59.41;99653.95;1811284;77;21147;-64
2021/04/25 05:55:21;;;;;;;11.65;4.90;;;;;;;5.90;59.15;99655.84;1827986;78;21297;-64
2021/04/25 05:57:49;;;;;;;9.85;5.80;;;;;;;5.98;59.18;99658.52;1809873;79;21513;-64
2021/04/25 06:00:22;;;;;;;9.38;5.00;;;;;;;6.07;59.28;99663.64;1764869;79;21911;-63
2021/04/25 06:02:50;;;;;;;12.45;5.97;;;;;;;6.19;58.63;99664.65;1758781;81;21174;-68
2021/04/25 06:05:17;;;;;;;9.90;5.60;;;;;;;6.30;59.09;99662.11;1759348;79;21155;-64
2021/04/25 06:07:47;;;;;;;8.50;4.83;;;;;;;6.46;59.32;99665.50;1812811;79;21048;-64
2021/04/25 06:10:14;;;;;;;7.85;4.33;;;;;;;6.83;58.51;99659.44;1809743;79;21191;-64
2021/04/25 06:12:42;;;;;;;8.35;5.40;;;;;;;6.83;58.51;99659.44;1797305;79;21155;-67
2021/04/25 06:15:10;;;;;;;10.03;4.62;;;;;;;6.96;56.78;99665.55;1797305;79;21595;-64
2021/04/25 06:17:37;;;;;;;8.38;4.53;;;;;;;7.06;55.81;99657.81;1797324;79;21112;-63
2021/04/25 06:20:08;;;;;;;9.30;4.67;;;;;;;7.11;55.67;99660.48;1797155;79;21591;-64
2021/04/25 06:22:36;;;;;;;8.68;5.12;;;;;;;7.13;54.47;99661.83;1797525;78;21194;-62
2021/04/25 06:25:05;;;;;;;10.75;5.50;;;;;;;7.15;55.12;99661.53;1802630;79;21550;-62
2021/04/25 06:27:33;;;;;;;9.40;4.72;;;;;;;7.24;56.53;99652.41;1812708;79;20956;-62
2021/04/25 06:30:02;;;;;;;8.75;5.00;;;;;;;7.40;55.91;99645.41;1812619;79;21189;-63
2021/04/25 06:32:29;;;;;;;8.20;4.58;;;;;;;7.51;54.87;99659.98;1786244;77;21195;-61
2021/04/25 06:34:58;;;;;;;10.98;5.05;;;;;;;7.60;54.17;99659.59;1781497;78;21186;-61
2021/04/25 06:37:26;;;;;;;15.05;5.50;;;;;;;7.71;54.11;99660.27;1804968;79;21174;-61
2021/04/25 06:39:54;;;;;;;11.08;4.75;;;;;;;7.79;53.73;99655.52;1758799;81;21127;-61
2021/04/25 06:42:21;;;;;;;11.60;5.87;;;;;;;7.87;53.45;99656.22;1758391;81;21631;-62
2021/04/25 06:44:49;;;;;;;10.95;5.65;;;;;;;8.01;52.67;99658.22;1795921;79;21641;-61
2021/04/25 06:47:17;;;;;;;9.93;4.97;;;;;;;8.10;52.22;99659.16;1812342;78;21590;-61
2021/04/25 06:49:45;;;;;;;9.40;4.85;;;;;;;8.20;51.67;99657.63;1804275;77;21157;-61
2021/04/25 06:52:13;;;;;;;17.45;5.00;;;;;;;8.27;50.42;99657.52;1798221;79;21138;-61
2021/04/25 06:54:42;;;;;;;10.35;4.75;;;;;;;8.34;50.50;99669.47;1811872;79;21636;-62
2021/04/25 06:57:10;;;;;;;8.73;4.50;;;;;;;8.47;50.32;99654.22;1807660;78;21201;-61
2021/04/25 06:59:41;;;;;;;12.58;4.97;;;;;;;8.67;49.83;99643.46;1806697;79;21190;-63
2021/04/25 07:02:11;;;;;;;8.25;5.08;;;;;;;8.83;49.13;99658.50;1806488;79;20999;-62
2021/04/25 07:04:40;;;;;;;9.28;4.72;;;;;;;8.91;48.25;99652.33;1806516;78;21158;-61
2021/04/25 07:07:07;;;;;;;9.05;4.67;;;;;;;8.93;47.69;99645.44;1806410;79;21087;-63
2021/04/25 07:09:35;;;;;;;7.95;4.10;;;;;;;8.93;46.12;99654.21;1776204;79;21197;-62
2021/04/25 07:12:06;;;;;;;7.95;4.92;;;;;;;8.89;45.77;99650.45;1806484;79;21203;-61
2021/04/25 07:14:34;;;;;;;9.88;4.65;;;;;;;8.91;47.09;99649.59;1806850;79;21090;-61
2021/04/25 07:17:02;;;;;;;7.47;4.55;;;;;;;9.02;47.13;99646.92;1806534;79;21107;-61
2021/04/25 07:19:31;;;;;;;11.65;4.95;;;;;;;9.15;47.07;99645.31;1800966;78;21208;-60
2021/04/25 07:21:59;;;;;;;8.15;4.20;;;;;;;9.28;46.80;99654.06;1760506;79;21151;-62
2021/04/25 07:24:27;;;;;;;9.23;4.00;;;;;;;9.46;46.57;99645.48;1786892;79;22367;-62
2021/04/25 07:26:55;;;;;;;8.85;3.47;;;;;;;9.69;44.58;99649.92;1806494;79;21166;-62
2021/04/25 07:29:22;;;;;;;9.53;3.77;;;;;;;9.64;42.82;99642.37;1806250;79;21142;-62
2021/04/25 07:31:51;;;;;;;11.45;4.10;;;;;;;9.70;44.81;99637.84;1787888;79;21130;-62
2021/04/25 07:34:19;;;;;;;8.70;3.62;;;;;;;9.87;44.42;99642.09;1807202;79;21134;-63
2021/04/25 07:36:47;;;;;;;6.92;4.67;;;;;;;9.97;43.71;99632.83;1806943;78;21289;-61
2021/04/25 07:39:15;;;;;;;9.70;4.72;;;;;;;10.02;43.48;99646.98;1807029;79;21138;-62
2021/04/25 07:41:42;;;;;;;8.05;4.85;;;;;;;10.03;43.84;99649.41;1807219;79;21105;-63
2021/04/25 07:44:10;;;;;;;13.03;6.20;;;;;;;10.05;43.71;99643.63;1806946;79;21158;-63
2021/04/25 07:46:38;;;;;;;7.55;4.28;;;;;;;10.04;44.05;99644.74;1807138;79;21131;-64
2021/04/25 07:49:07;;;;;;;5.75;3.75;;;;;;;10.00;43.56;99639.06;1807022;79;21490;-64
2021/04/25 07:51:34;;;;;;;9.85;4.15;;;;;;;9.93;42.93;99636.75;1806764;79;20932;-63
2021/04/25 07:54:04;;;;;;;6.85;4.17;;;;;;;9.89;42.96;99633.56;1807076;79;21580;-62
2021/04/25 07:56:32;;;;;;;11.15;4.67;;;;;;;9.97;43.45;99634.20;1786571;79;21209;-63
2021/04/25 07:59:00;;;;;;;8.98;4.05;;;;;;;10.15;43.45;99628.30;1759082;81;21171;-63
2021/04/25 08:01:27;;;;;;;7.50;4.80;;;;;;;10.24;42.32;99629.20;1759233;81;21148;-64
2021/04/25 08:03:57;;;;;;;7.00;4.10;;;;;;;10.25;43.07;99624.78;1759057;81;21203;-63
2021/04/25 08:06:26;;;;;;;9.05;5.10;;;;;;;10.33;43.28;99610.88;1770190;79;21169;-64
2021/04/25 08:08:54;;;;;;;8.75;4.17;;;;;;;10.59;43.78;99620.06;1781185;79;22162;-63
2021/04/25 08:11:22;;;;;;;9.35;4.45;;;;;;;10.90;41.73;99617.89;1790784;79;21145;-62
2021/04/25 08:13:50;;;;;;;8.43;3.90;;;;;;;11.08;40.80;99618.19;1799363;79;21419;-62
2021/04/25 08:16:17;;;;;;;7.47;4.20;;;;;;;11.06;41.31;99618.25;1799096;79;21180;-65
2021/04/25 08:18:45;;;;;;;16.73;4.40;;;;;;;10.96;41.26;99618.00;1799207;79;20971;-64
2021/04/25 08:21:14;;;;;;;5.80;3.75;;;;;;;10.75;41.06;99610.06;1783570;79;21121;-65
2021/04/25 08:23:42;;;;;;;9.58;3.67;;;;;;;10.58;41.93;99607.46;1778256;78;21192;-61
2021/04/25 08:26:10;;;;;;;8.43;3.47;;;;;;;10.43;41.15;99616.08;1792048;78;22410;-63
2021/04/25 08:28:37;;;;;;;8.80;4.03;;;;;;;10.25;41.23;99606.14;1798977;78;21062;-62
2021/04/25 08:31:05;;;;;;;7.72;3.62;;;;;;;10.09;42.30;99615.27;1776399;79;21016;-62
2021/04/25 08:33:33;;;;;;;7.95;3.70;;;;;;;9.96;42.94;99610.64;1767677;81;21564;-62
2021/04/25 08:36:00;;;;;;;9.10;4.37;;;;;;;9.78;43.33;99604.22;1767728;79;21188;-63
2021/04/25 08:38:28;;;;;;;11.22;3.92;;;;;;;9.67;44.33;99608.30;1767724;81;21364;-63
2021/04/25 08:41:00;;;;;;;6.42;3.42;;;;;;;9.60;44.75;99618.31;1767473;81;21664;-63
2021/04/25 08:43:28;;;;;;;12.85;3.90;;;;;;;9.61;42.85;99613.65;1767953;81;21107;-62
2021/04/25 08:45:55;;;;;;;7.30;3.12;;;;;;;9.62;41.61;99604.87;1767693;81;21145;-62
2021/04/25 08:48:25;;;;;;;8.58;4.08;;;;;;;9.60;42.25;99608.72;1767643;81;21153;-62
2021/04/25 08:50:54;;;;;;;7.53;3.67;;;;;;;9.62;42.07;99606.23;1785261;79;21236;-62
2021/04/25 08:53:21;;;;;;;10.18;3.37;;;;;;;9.65;42.08;99600.14;1799086;79;21233;-62
2021/04/25 08:55:50;;;;;;;8.45;2.85;;;;;;;9.65;41.58;99609.17;1798971;78;21577;-62
2021/04/25 08:58:18;;;;;;;10.20;4.42;;;;;;;9.66;42.88;99614.09;1786518;79;21948;-62
2021/04/25 09:00:46;;;;;;;8.98;5.33;;;;;;;9.70;42.28;99610.98;1760531;79;21120;-62
2021/04/25 09:03:15;;;;;;;8.75;4.30;;;;;;;9.68;41.11;99611.30;1759049;81;21374;-62
2021/04/25 09:05:44;;;;;;;10.75;4.20;;;;;;;9.61;41.03;99612.28;1758836;81;21635;-62
2021/04/25 09:08:13;;;;;;;17.30;4.90;;;;;;;9.53;41.73;99617.11;1759054;80;21134;-62
2021/04/25 09:10:43;;;;;;;11.60;5.67;;;;;;;9.40;42.02;99626.16;1759020;81;21175;-62
2021/04/25 09:13:21;;;;;;;9.95;4.55;;;;;;;9.22;42.76;99635.58;1768423;79;21141;-62
2021/04/25 09:15:49;;;;;;;10.95;4.67;;;;;;;9.08;43.01;99627.91;1780926;79;21597;-62
2021/04/25 09:18:17;;;;;;;9.25;4.17;;;;;;;8.90;44.34;99632.36;1780381;79;21604;-63
2021/04/25 09:23:32;;;;;;;8.33;4.20;;;;;;;8.65;47.13;99641.61;1888872;76;22722;-63
2021/04/25 09:26:05;;;;;;;;;;;;;;;8.48;47.82;99640.25;1862538;77;20979;-62
2021/04/25 09:28:36;;;;;;;;;;;;;;;8.35;48.16;99639.64;1862476;77;21292;-63
2021/04/25 09:31:11;;;;;;;12.63;4.50;;;;;;;8.28;49.52;99636.45;1859769;77;20350;-62
2021/04/25 09:33:57;;;;;;;10.93;4.30;;;;;;;8.31;49.46;99637.22;1859839;77;21608;-63
2021/04/25 09:36:28;;;;;;;7.47;3.33;;;;;;;8.38;48.82;99629.47;1859743;77;21614;-62
2021/04/25 09:39:12;;;;;;;7.83;4.58;;;;;;;8.47;49.83;99630.97;1859657;77;21014;-63
2021/04/25 09:41:40;;;;;;;12.03;5.00;;;;;;;8.53;49.12;99642.89;1859580;77;22245;-63
2021/04/25 09:44:07;;;;;;;9.08;4.20;;;;;;;8.48;48.72;99635.33;1859549;77;21014;-63
2021/04/25 09:46:56;;;;;;;7.95;3.60;;;;;;;8.40;49.31;99634.09;1859764;77;21695;-63
2021/04/25 09:49:49;;;;;;;8.93;4.20;;;;;;;8.36;50.17;99641.83;1859600;77;21472;-63
2021/04/25 09:52:36;;;;;;;7.87;4.22;;;;;;;8.33;50.20;99636.39;1859773;77;21184;-63
2021/04/25 09:55:24;;;;;;;6.72;3.95;;;;;;;8.24;53.31;99627.20;1859440;77;21185;-63
2021/04/25 09:57:56;;;;;;;9.15;4.60;;;;;;;8.19;54.18;99631.39;1867458;76;21165;-62
2021/04/25 10:00:39;;;;;;;12.75;5.47;;;;;;;8.10;54.99;99637.28;1871641;76;21448;-62
2021/04/25 10:03:11;;;;;;;13.28;5.90;;;;;;;8.04;55.32;99625.64;1841631;76;21123;-66
2021/04/25 10:05:46;;;;;;;11.80;4.78;;;;;;;8.01;55.85;99627.59;1871194;76;21139;-62
2021/04/25 10:08:19;;;;;;;10.65;4.75;;;;;;;8.04;55.16;99617.44;1808359;77;22142;-62
2021/04/25 10:10:49;;;;;;;12.40;5.87;;;;;;;8.13;54.97;99609.34;1825857;78;21576;-63
2021/04/25 10:13:18;;;;;;;11.78;4.97;;;;;;;8.36;55.22;99620.75;1796938;78;21114;-64
2021/04/25 10:15:47;;;;;;;8.93;4.83;;;;;;;8.76;54.57;99615.66;1793668;80;21113;-64
2021/04/25 10:18:19;;;;;;;9.40;4.40;;;;;;;9.02;53.39;99612.70;1793798;79;21121;-62
2021/04/25 10:20:54;;;;;;;12.03;4.72;;;;;;;9.10;53.07;99611.98;1797588;78;24820;-63
2021/04/25 10:23:22;;;;;;;9.88;3.67;;;;;;;9.09;52.33;99606.81;1825836;78;21141;-61
2021/04/25 10:25:50;;;;;;;7.97;4.40;;;;;;;9.12;52.06;99600.17;1826159;78;21161;-65
2021/04/25 10:28:31;;;;;;;7.50;4.60;;;;;;;9.28;52.13;99598.72;1826104;78;21497;-61
2021/04/25 10:31:06;;;;;;;11.00;4.53;;;;;;;9.63;52.79;99595.52;1825997;78;20995;-61
2021/04/25 10:33:59;;;;;;;8.30;4.55;;;;;;;10.16;50.45;99602.48;1811416;78;21433;-62
2021/04/25 10:36:51;;;;;;;14.50;4.70;;;;;;;10.42;50.12;99592.50;1824240;78;21973;-61
2021/04/25 10:42:26;;;;;;;9.70;5.20;;;;;;;10.66;48.45;99587.23;1843199;76;22678;-60
2021/04/25 10:45:03;;;;;;;8.40;5.00;;;;;;;10.78;48.48;99582.78;1829537;78;20984;-60
2021/04/25 10:47:33;;;;;;;9.15;4.42;;;;;;;10.99;47.25;99588.50;1822078;78;21458;-61
2021/04/25 10:50:16;;;;;;;9.13;4.65;;;;;;;11.17;47.06;99592.12;1814213;78;21150;-61
2021/04/25 10:52:50;;;;;;;8.88;4.55;;;;;;;11.27;46.92;99589.64;1807064;79;21574;-61
2021/04/25 10:55:25;;;;;;;15.40;5.25;;;;;;;11.23;46.09;99586.72;1811620;78;21030;-60
2021/04/25 10:58:01;;;;;;;9.25;4.50;;;;;;;11.05;46.39;99581.73;1840793;78;21535;-63
2021/04/25 11:00:39;;;;;;;8.60;4.90;;;;;;;10.84;48.32;99568.34;1837242;76;21183;-61
2021/04/25 11:03:22;;;;;;;15.32;5.42;;;;;;;10.79;48.20;99572.61;1826093;78;21024;-61
2021/04/25 11:06:03;;;;;;;9.90;5.33;;;;;;;11.03;48.60;99579.87;1787700;80;20922;-62
2021/04/25 11:08:39;;;;;;;10.20;5.75;;;;;;;11.42;47.43;99586.45;1787610;80;21604;-62
2021/04/25 11:11:09;;;;;;;10.98;5.75;;;;;;;11.64;48.11;99567.05;1787647;80;21164;-62
2021/04/25 11:13:46;;;;;;;10.97;5.50;;;;;;;12.03;46.44;99568.07;1746378;81;21272;-62
2021/04/25 11:16:24;;;;;;;9.98;5.28;;;;;;;12.50;45.70;99565.63;1748325;81;21234;-62
2021/04/25 11:19:02;;;;;;;8.48;4.30;;;;;;;12.87;44.36;99555.76;1756339;81;21191;-62
2021/04/25 11:21:45;;;;;;;7.60;4.50;;;;;;;13.01;42.35;99563.00;1756445;81;21127;-62
2021/04/25 11:24:18;;;;;;;9.53;5.00;;;;;;;13.02;43.75;99550.84;1755652;81;21598;-62
2021/04/25 11:26:52;;;;;;;8.25;4.53;;;;;;;13.26;43.11;99537.28;1741166;82;22244;-64
2021/04/25 11:29:50;;;;;;;5.30;3.52;;;;;;;13.52;43.17;99550.30;1740836;82;21019;-63
2021/04/25 11:32:24;;;;;;;26.40;5.25;;;;;;;13.72;41.39;99536.86;1710496;83;21586;-62
2021/04/25 11:34:58;;;;;;;7.53;4.50;;;;;;;13.58;40.51;99539.88;1717652;83;21196;-62
2021/04/25 11:37:26;;;;;;;22.82;10.95;;;;;;;13.24;41.54;99531.87;1697221;84;21085;-62
2021/04/25 11:39:59;;;;;;;10.72;5.60;;;;;;;12.84;41.50;99548.72;1727741;83;22894;-62
2021/04/25 11:42:37;;;;;;;8.58;4.47;;;;;;;12.37;42.34;99548.73;1727524;82;21156;-67
2021/04/25 11:45:13;;;;;;;15.40;6.75;;;;;;;11.90;43.67;99537.66;1707923;82;21175;-67
2021/04/25 11:47:53;;;;;;;13.50;6.78;;;;;;;11.71;44.44;99539.08;1745601;82;21830;-67
2021/04/25 11:50:27;;;;;;;8.60;5.03;;;;;;;11.59;44.96;99535.59;1738053;82;21069;-64
2021/04/25 11:52:54;;;;;;;8.48;4.92;;;;;;;11.41;44.46;99535.36;1683192;84;22282;-64
2021/04/25 11:55:23;;;;;;;8.80;5.42;;;;;;;11.22;45.60;99543.33;1709648;84;21147;-64